sensor_id;sensor_type;location;lat;lon;timestamp;pressure;altitude;pressure_sealevel;temperature;humidity
19096;BME280;9680;52.520;13.332;2023-12-28T00:00:06;100814.00;;;4.74;86.78
19096;BME280;9680;52.520;13.332;2023-12-28T00:02:34;100807.97;;;4.75;86.74
19096;BME280;9680;52.520;13.332;2023-12-28T00:05:01;100812.22;;;4.78;86.89
19096;BME280;9680;52.520;13.332;2023-12-28T00:07:29;100801.03;;;4.79;87.01
19096;BME280;9680;52.520;13.332;2023-12-28T00:09:55;100802.72;;;4.80;87.08
19096;BME280;9680;52.520;13.332;2023-12-28T00:12:22;100789.81;;;4.81;86.99
19096;BME280;9680;52.520;13.332;2023-12-28T00:14:49;100779.44;;;4.83;86.95
19096;BME280;9680;52.520;13.332;2023-12-28T00:17:16;100776.88;;;4.85;87.04
19096;BME280;9680;52.520;13.332;2023-12-28T00:19:44;100774.25;;;4.86;86.85
19096;BME280;9680;52.520;13.332;2023-12-28T00:22:11;100761.34;;;4.86;87.00
19096;BME280;9680;52.520;13.332;2023-12-28T00:24:38;100757.88;;;4.87;86.93
19096;BME280;9680;52.520;13.332;2023-12-28T00:27:04;100763.91;;;4.88;86.96
19096;BME280;9680;52.520;13.332;2023-12-28T00:29:31;100762.16;;;4.88;87.06
19096;BME280;9680;52.520;13.332;2023-12-28T00:31:59;100747.50;;;4.90;86.92
19096;BME280;9680;52.520;13.332;2023-12-28T00:34:25;100751.84;;;4.90;86.80
19096;BME280;9680;52.520;13.332;2023-12-28T00:36:54;100752.66;;;4.92;87.10
19096;BME280;9680;52.520;13.332;2023-12-28T00:39:21;100756.09;;;4.92;87.05
19096;BME280;9680;52.520;13.332;2023-12-28T00:41:48;100752.63;;;4.93;86.83
19096;BME280;9680;52.520;13.332;2023-12-28T00:44:15;100752.63;;;4.95;86.91
19096;BME280;9680;52.520;13.332;2023-12-28T00:46:42;100755.16;;;4.96;86.88
19096;BME280;9680;52.520;13.332;2023-12-28T00:49:08;100744.81;;;5.00;86.96
19096;BME280;9680;52.520;13.332;2023-12-28T00:51:35;100754.25;;;5.02;86.75
19096;BME280;9680;52.520;13.332;2023-12-28T00:54:03;100767.09;;;5.05;86.68
19096;BME280;9680;52.520;13.332;2023-12-28T00:56:30;100759.34;;;5.07;86.61
19096;BME280;9680;52.520;13.332;2023-12-28T00:58:57;100756.72;;;5.10;86.79
19096;BME280;9680;52.520;13.332;2023-12-28T01:01:24;100757.56;;;5.10;86.56
19096;BME280;9680;52.520;13.332;2023-12-28T01:03:50;100765.28;;;5.12;86.24
19096;BME280;9680;52.520;13.332;2023-12-28T01:06:18;100764.41;;;5.13;86.44
19096;BME280;9680;52.520;13.332;2023-12-28T01:08:45;100775.63;;;5.12;86.18
19096;BME280;9680;52.520;13.332;2023-12-28T01:11:13;100763.56;;;5.13;86.32
19096;BME280;9680;52.520;13.332;2023-12-28T01:13:40;100755.84;;;5.11;85.96
19096;BME280;9680;52.520;13.332;2023-12-28T01:16:07;100759.31;;;5.10;86.25
19096;BME280;9680;52.520;13.332;2023-12-28T01:18:33;100763.59;;;5.09;86.13
19096;BME280;9680;52.520;13.332;2023-12-28T01:21:00;100763.59;;;5.11;86.01
19096;BME280;9680;52.520;13.332;2023-12-28T01:23:27;100761.84;;;5.12;85.98
19096;BME280;9680;52.520;13.332;2023-12-28T01:25:55;100763.59;;;5.11;85.84
19096;BME280;9680;52.520;13.332;2023-12-28T01:28:23;100749.81;;;5.10;86.11
19096;BME280;9680;52.520;13.332;2023-12-28T01:30:49;100752.38;;;5.12;86.00
19096;BME280;9680;52.520;13.332;2023-12-28T01:33:16;100759.25;;;5.12;85.59
19096;BME280;9680;52.520;13.332;2023-12-28T01:35:43;100750.69;;;5.11;85.51
19096;BME280;9680;52.520;13.332;2023-12-28T01:38:10;100754.97;;;5.12;85.80
19096;BME280;9680;52.520;13.332;2023-12-28T01:40:36;100750.63;;;5.13;85.51
19096;BME280;9680;52.520;13.332;2023-12-28T01:43:03;100748.94;;;5.13;85.62
19096;BME280;9680;52.520;13.332;2023-12-28T01:45:31;100741.13;;;5.15;85.50
19096;BME280;9680;52.520;13.332;2023-12-28T01:47:59;100729.06;;;5.17;85.47
19096;BME280;9680;52.520;13.332;2023-12-28T01:50:26;100718.72;;;5.18;85.43
19096;BME280;9680;52.520;13.332;2023-12-28T01:52:54;100699.75;;;5.19;85.22
19096;BME280;9680;52.520;13.332;2023-12-28T01:55:22;100691.97;;;5.22;85.03
19096;BME280;9680;52.520;13.332;2023-12-28T01:57:49;100692.78;;;5.23;84.88
19096;BME280;9680;52.520;13.332;2023-12-28T02:00:16;100686.75;;;5.25;84.97
19096;BME280;9680;52.520;13.332;2023-12-28T02:02:45;100682.41;;;5.28;85.06
19096;BME280;9680;52.520;13.332;2023-12-28T02:05:12;100680.59;;;5.33;84.91
19096;BME280;9680;52.520;13.332;2023-12-28T02:07:40;100680.44;;;5.42;84.86
19096;BME280;9680;52.520;13.332;2023-12-28T02:10:07;100694.81;;;5.56;84.58
19096;BME280;9680;52.520;13.332;2023-12-28T02:12:34;100708.44;;;5.65;83.76
19096;BME280;9680;52.520;13.332;2023-12-28T02:15:01;100719.44;;;5.77;83.34
19096;BME280;9680;52.520;13.332;2023-12-28T02:17:32;100724.47;;;5.85;82.88
19096;BME280;9680;52.520;13.332;2023-12-28T02:20:01;100728.72;;;5.89;82.13
19096;BME280;9680;52.520;13.332;2023-12-28T02:22:31;100732.19;;;5.88;81.57
19096;BME280;9680;52.520;13.332;2023-12-28T02:25:09;100742.41;;;5.92;81.62
19096;BME280;9680;52.520;13.332;2023-12-28T02:27:38;100728.44;;;6.04;81.17
19096;BME280;9680;52.520;13.332;2023-12-28T02:30:06;100739.44;;;6.16;81.07
19096;BME280;9680;52.520;13.332;2023-12-28T02:32:52;100741.78;;;6.28;79.86
19096;BME280;9680;52.520;13.332;2023-12-28T02:35:23;100720.03;;;6.37;78.99
19096;BME280;9680;52.520;13.332;2023-12-28T02:37:52;100724.13;;;6.49;78.70
19096;BME280;9680;52.520;13.332;2023-12-28T02:40:22;100708.41;;;6.56;77.43
19096;BME280;9680;52.520;13.332;2023-12-28T02:42:50;100700.41;;;6.69;76.65
19096;BME280;9680;52.520;13.332;2023-12-28T02:45:17;100696.81;;;6.75;73.95
19096;BME280;9680;52.520;13.332;2023-12-28T02:47:44;100709.59;;;6.82;75.12
19096;BME280;9680;52.520;13.332;2023-12-28T02:50:11;100714.66;;;6.87;74.57
19096;BME280;9680;52.520;13.332;2023-12-28T02:52:38;100720.53;;;6.94;72.69
19096;BME280;9680;52.520;13.332;2023-12-28T02:55:06;100706.53;;;7.03;72.77
19096;BME280;9680;52.520;13.332;2023-12-28T02:57:34;100714.03;;;7.13;72.73
19096;BME280;9680;52.520;13.332;2023-12-28T03:00:05;100697.44;;;7.22;71.21
19096;BME280;9680;52.520;13.332;2023-12-28T03:02:34;100698.09;;;7.31;71.13
19096;BME280;9680;52.520;13.332;2023-12-28T03:05:02;100706.56;;;7.37;69.71
19096;BME280;9680;52.520;13.332;2023-12-28T03:07:30;100706.34;;;7.45;70.33
19096;BME280;9680;52.520;13.332;2023-12-28T03:09:57;100709.56;;;7.55;69.63
19096;BME280;9680;52.520;13.332;2023-12-28T03:12:24;100709.41;;;7.61;68.41
19096;BME280;9680;52.520;13.332;2023-12-28T03:14:52;100707.59;;;7.65;68.20
19096;BME280;9680;52.520;13.332;2023-12-28T03:17:19;100706.56;;;7.72;67.88
19096;BME280;9680;52.520;13.332;2023-12-28T03:19:45;100698.59;;;7.78;67.89
19096;BME280;9680;52.520;13.332;2023-12-28T03:22:12;100708.84;;;7.83;67.55
19096;BME280;9680;52.520;13.332;2023-12-28T03:24:39;100708.66;;;7.89;67.42
19096;BME280;9680;52.520;13.332;2023-12-28T03:27:06;100709.47;;;7.91;67.36
19096;BME280;9680;52.520;13.332;2023-12-28T03:29:33;100717.13;;;7.97;67.28
19096;BME280;9680;52.520;13.332;2023-12-28T03:32:01;100706.59;;;8.02;66.75
19096;BME280;9680;52.520;13.332;2023-12-28T03:34:28;100710.72;;;8.09;66.57
19096;BME280;9680;52.520;13.332;2023-12-28T03:36:56;100710.69;;;8.11;66.42
19096;BME280;9680;52.520;13.332;2023-12-28T03:39:23;100714.97;;;8.12;66.59
19096;BME280;9680;52.520;13.332;2023-12-28T03:41:49;100714.13;;;8.11;66.91
19096;BME280;9680;52.520;13.332;2023-12-28T03:44:18;100717.69;;;8.07;66.03
19096;BME280;9680;52.520;13.332;2023-12-28T03:46:47;100728.84;;;8.11;66.43
19096;BME280;9680;52.520;13.332;2023-12-28T03:49:16;100719.28;;;8.13;66.81
19096;BME280;9680;52.520;13.332;2023-12-28T03:51:43;100729.59;;;8.14;66.86
19096;BME280;9680;52.520;13.332;2023-12-28T03:54:10;100723.56;;;8.14;67.51
19096;BME280;9680;52.520;13.332;2023-12-28T03:56:36;100719.31;;;8.11;67.46
19096;BME280;9680;52.520;13.332;2023-12-28T03:59:05;100723.66;;;8.11;68.05
19096;BME280;9680;52.520;13.332;2023-12-28T04:01:32;100717.53;;;8.13;68.07
19096;BME280;9680;52.520;13.332;2023-12-28T04:03:59;100716.53;;;8.18;68.64
19096;BME280;9680;52.520;13.332;2023-12-28T04:06:28;100719.94;;;8.20;68.50
19096;BME280;9680;52.520;13.332;2023-12-28T04:08:56;100713.84;;;8.21;68.72
19096;BME280;9680;52.520;13.332;2023-12-28T04:11:23;100720.00;;;8.18;68.55
19096;BME280;9680;52.520;13.332;2023-12-28T04:13:51;100713.91;;;8.19;68.50
19096;BME280;9680;52.520;13.332;2023-12-28T04:16:18;100719.00;;;8.22;68.22
19096;BME280;9680;52.520;13.332;2023-12-28T04:18:45;100725.91;;;8.23;68.13
19096;BME280;9680;52.520;13.332;2023-12-28T04:21:13;100744.00;;;8.25;67.81
19096;BME280;9680;52.520;13.332;2023-12-28T04:23:41;100742.19;;;8.28;68.36
19096;BME280;9680;52.520;13.332;2023-12-28T04:26:08;100732.53;;;8.34;68.16
19096;BME280;9680;52.520;13.332;2023-12-28T04:28:35;100738.50;;;8.37;67.92
19096;BME280;9680;52.520;13.332;2023-12-28T04:31:03;100735.81;;;8.40;67.57
19096;BME280;9680;52.520;13.332;2023-12-28T04:33:30;100737.44;;;8.43;67.55
19096;BME280;9680;52.520;13.332;2023-12-28T04:35:57;100740.81;;;8.47;67.45
19096;BME280;9680;52.520;13.332;2023-12-28T04:38:27;100745.97;;;8.48;66.98
19096;BME280;9680;52.520;13.332;2023-12-28T04:40:55;100744.41;;;8.42;66.60
19096;BME280;9680;52.520;13.332;2023-12-28T04:43:23;100739.94;;;8.48;66.90
19096;BME280;9680;52.520;13.332;2023-12-28T04:45:50;100732.91;;;8.51;66.72
19096;BME280;9680;52.520;13.332;2023-12-28T04:48:17;100722.44;;;8.54;66.75
19096;BME280;9680;52.520;13.332;2023-12-28T04:50:46;100731.09;;;8.55;66.28
19096;BME280;9680;52.520;13.332;2023-12-28T04:53:13;100739.72;;;8.55;66.18
19096;BME280;9680;52.520;13.332;2023-12-28T04:55:40;100733.63;;;8.56;65.00
19096;BME280;9680;52.520;13.332;2023-12-28T04:58:08;100726.63;;;8.60;65.40
19096;BME280;9680;52.520;13.332;2023-12-28T05:00:37;100750.75;;;8.64;65.14
19096;BME280;9680;52.520;13.332;2023-12-28T05:03:04;100747.19;;;8.66;65.53
19096;BME280;9680;52.520;13.332;2023-12-28T05:05:31;100754.19;;;8.64;65.46
19096;BME280;9680;52.520;13.332;2023-12-28T05:07:57;100757.78;;;8.60;64.99
19096;BME280;9680;52.520;13.332;2023-12-28T05:10:24;100746.59;;;8.58;65.09
19096;BME280;9680;52.520;13.332;2023-12-28T05:12:51;100765.66;;;8.57;64.82
19096;BME280;9680;52.520;13.332;2023-12-28T05:15:19;100763.16;;;8.54;64.43
19096;BME280;9680;52.520;13.332;2023-12-28T05:17:46;100776.97;;;8.54;64.55
19096;BME280;9680;52.520;13.332;2023-12-28T05:20:12;100778.66;;;8.55;65.13
19096;BME280;9680;52.520;13.332;2023-12-28T05:22:39;100772.56;;;8.56;65.25
19096;BME280;9680;52.520;13.332;2023-12-28T05:25:06;100774.47;;;8.51;65.14
19096;BME280;9680;52.520;13.332;2023-12-28T05:27:33;100772.88;;;8.45;65.01
19096;BME280;9680;52.520;13.332;2023-12-28T05:30:00;100779.94;;;8.40;65.12
19096;BME280;9680;52.520;13.332;2023-12-28T05:32:28;100755.72;;;8.40;65.51
19096;BME280;9680;52.520;13.332;2023-12-28T05:34:55;100769.59;;;8.39;65.50
19096;BME280;9680;52.520;13.332;2023-12-28T05:37:21;100787.81;;;8.37;66.04
19096;BME280;9680;52.520;13.332;2023-12-28T05:39:48;100784.41;;;8.35;65.82
19096;BME280;9680;52.520;13.332;2023-12-28T05:42:15;100795.69;;;8.34;65.99
19096;BME280;9680;52.520;13.332;2023-12-28T05:44:42;100802.63;;;8.34;66.60
19096;BME280;9680;52.520;13.332;2023-12-28T05:47:08;100807.78;;;8.35;66.62
19096;BME280;9680;52.520;13.332;2023-12-28T05:49:38;100806.91;;;8.35;67.01
19096;BME280;9680;52.520;13.332;2023-12-28T05:52:05;100813.88;;;8.34;66.88
19096;BME280;9680;52.520;13.332;2023-12-28T05:54:31;100817.28;;;8.35;66.94
19096;BME280;9680;52.520;13.332;2023-12-28T05:56:58;100821.66;;;8.34;67.06
19096;BME280;9680;52.520;13.332;2023-12-28T05:59:25;100820.88;;;8.30;67.39
19096;BME280;9680;52.520;13.332;2023-12-28T06:01:52;100836.34;;;8.35;67.66
19096;BME280;9680;52.520;13.332;2023-12-28T06:04:18;100838.03;;;8.36;68.10
19096;BME280;9680;52.520;13.332;2023-12-28T06:06:46;100836.28;;;8.37;68.00
19096;BME280;9680;52.520;13.332;2023-12-28T06:09:13;100839.00;;;8.32;68.42
19096;BME280;9680;52.520;13.332;2023-12-28T06:11:40;100843.34;;;8.31;68.92
19096;BME280;9680;52.520;13.332;2023-12-28T06:14:07;100836.44;;;8.30;69.22
19096;BME280;9680;52.520;13.332;2023-12-28T06:16:34;100834.75;;;8.29;69.91
19096;BME280;9680;52.520;13.332;2023-12-28T06:19:01;100843.34;;;8.31;69.95
19096;BME280;9680;52.520;13.332;2023-12-28T06:21:27;100835.59;;;8.30;70.46
19096;BME280;9680;52.520;13.332;2023-12-28T06:23:57;100839.03;;;8.30;70.99
19096;BME280;9680;52.520;13.332;2023-12-28T06:26:23;100832.06;;;8.33;71.23
19096;BME280;9680;52.520;13.332;2023-12-28T06:28:50;100837.22;;;8.34;71.14
19096;BME280;9680;52.520;13.332;2023-12-28T06:31:17;100836.44;;;8.30;71.44
19096;BME280;9680;52.520;13.332;2023-12-28T06:33:43;100829.66;;;8.25;72.17
19096;BME280;9680;52.520;13.332;2023-12-28T06:36:11;100832.16;;;8.28;72.15
19096;BME280;9680;52.520;13.332;2023-12-28T06:38:38;100826.16;;;8.27;72.46
19096;BME280;9680;52.520;13.332;2023-12-28T06:41:11;100822.69;;;8.27;72.41
19096;BME280;9680;52.520;13.332;2023-12-28T06:43:38;100831.38;;;8.26;72.39
19096;BME280;9680;52.520;13.332;2023-12-28T06:46:05;100840.94;;;8.24;72.59
19096;BME280;9680;52.520;13.332;2023-12-28T06:48:32;100849.66;;;8.21;73.01
19096;BME280;9680;52.520;13.332;2023-12-28T06:50:59;100830.63;;;8.21;73.25
19096;BME280;9680;52.520;13.332;2023-12-28T06:53:25;100828.84;;;8.23;73.04
19096;BME280;9680;52.520;13.332;2023-12-28T06:55:52;100834.09;;;8.21;73.30
19096;BME280;9680;52.520;13.332;2023-12-28T06:58:20;100844.41;;;8.23;73.50
19096;BME280;9680;52.520;13.332;2023-12-28T07:00:47;100841.88;;;8.21;73.55
19096;BME280;9680;52.520;13.332;2023-12-28T07:03:13;100838.34;;;8.24;73.70
19096;BME280;9680;52.520;13.332;2023-12-28T07:05:40;100843.53;;;8.24;73.79
19096;BME280;9680;52.520;13.332;2023-12-28T07:08:07;100832.34;;;8.22;73.90
19096;BME280;9680;52.520;13.332;2023-12-28T07:10:34;100839.28;;;8.21;74.02
19096;BME280;9680;52.520;13.332;2023-12-28T07:13:01;100850.56;;;8.20;73.82
19096;BME280;9680;52.520;13.332;2023-12-28T07:15:29;100859.25;;;8.18;74.29
19096;BME280;9680;52.520;13.332;2023-12-28T07:17:56;100862.66;;;8.20;74.49
19096;BME280;9680;52.520;13.332;2023-12-28T07:20:23;100867.84;;;8.20;74.36
19096;BME280;9680;52.520;13.332;2023-12-28T07:22:50;100862.72;;;8.18;74.51
19096;BME280;9680;52.520;13.332;2023-12-28T07:25:16;100873.06;;;8.20;74.69
19096;BME280;9680;52.520;13.332;2023-12-28T07:27:43;100867.91;;;8.18;74.78
19096;BME280;9680;52.520;13.332;2023-12-28T07:30:11;100859.25;;;8.18;75.03
19096;BME280;9680;52.520;13.332;2023-12-28T07:32:39;100873.94;;;8.19;75.20
19096;BME280;9680;52.520;13.332;2023-12-28T07:35:06;100867.03;;;8.19;74.86
19096;BME280;9680;52.520;13.332;2023-12-28T07:37:33;100870.50;;;8.18;75.30
19096;BME280;9680;52.520;13.332;2023-12-28T07:40:00;100871.31;;;8.20;75.49
19096;BME280;9680;52.520;13.332;2023-12-28T07:42:27;100878.22;;;8.21;75.27
19096;BME280;9680;52.520;13.332;2023-12-28T07:44:54;100875.56;;;8.23;75.66
19096;BME280;9680;52.520;13.332;2023-12-28T07:47:20;100875.56;;;8.23;75.51
19096;BME280;9680;52.520;13.332;2023-12-28T07:49:49;100889.41;;;8.23;75.69
19096;BME280;9680;52.520;13.332;2023-12-28T07:52:16;100896.31;;;8.23;75.66
19096;BME280;9680;52.520;13.332;2023-12-28T07:54:42;100898.00;;;8.25;75.96
19096;BME280;9680;52.520;13.332;2023-12-28T07:57:09;100901.41;;;8.27;75.61
19096;BME280;9680;52.520;13.332;2023-12-28T07:59:36;100903.91;;;8.32;75.99
19096;BME280;9680;52.520;13.332;2023-12-28T08:02:03;100909.03;;;8.34;75.75
19096;BME280;9680;52.520;13.332;2023-12-28T08:04:29;100915.03;;;8.37;75.89
19096;BME280;9680;52.520;13.332;2023-12-28T08:06:58;100909.78;;;8.39;75.86
19096;BME280;9680;52.520;13.332;2023-12-28T08:09:24;100914.88;;;8.42;76.01
19096;BME280;9680;52.520;13.332;2023-12-28T08:11:52;100917.44;;;8.43;75.99
19096;BME280;9680;52.520;13.332;2023-12-28T08:14:18;100924.25;;;8.48;75.80
19096;BME280;9680;52.520;13.332;2023-12-28T08:16:45;100925.06;;;8.51;75.76
19096;BME280;9680;52.520;13.332;2023-12-28T08:19:13;100924.13;;;8.54;75.51
19096;BME280;9680;52.520;13.332;2023-12-28T08:21:40;100935.28;;;8.57;75.26
19096;BME280;9680;52.520;13.332;2023-12-28T08:24:08;100935.34;;;8.56;75.45
19096;BME280;9680;52.520;13.332;2023-12-28T08:26:35;100923.16;;;8.58;75.58
19096;BME280;9680;52.520;13.332;2023-12-28T08:29:02;100923.94;;;8.62;75.57
19096;BME280;9680;52.520;13.332;2023-12-28T08:31:29;100923.00;;;8.64;75.26
19096;BME280;9680;52.520;13.332;2023-12-28T08:33:55;100916.91;;;8.65;75.10
19096;BME280;9680;52.520;13.332;2023-12-28T08:36:23;100923.03;;;8.63;74.72
19096;BME280;9680;52.520;13.332;2023-12-28T08:38:49;100922.00;;;8.68;74.78
19096;BME280;9680;52.520;13.332;2023-12-28T08:41:21;100923.72;;;8.69;74.58
19096;BME280;9680;52.520;13.332;2023-12-28T08:43:49;100924.50;;;8.73;74.33
19096;BME280;9680;52.520;13.332;2023-12-28T08:46:17;100931.41;;;8.74;74.25
19096;BME280;9680;52.520;13.332;2023-12-28T08:48:44;100932.22;;;8.74;74.21
19096;BME280;9680;52.520;13.332;2023-12-28T08:51:11;100930.34;;;8.80;74.28
19096;BME280;9680;52.520;13.332;2023-12-28T08:53:39;100922.44;;;8.84;74.31
19096;BME280;9680;52.520;13.332;2023-12-28T08:56:13;100933.50;;;8.91;73.90
19096;BME280;9680;52.520;13.332;2023-12-28T08:58:41;100931.66;;;8.96;73.67
19096;BME280;9680;52.520;13.332;2023-12-28T09:01:08;100931.56;;;8.99;73.33
19096;BME280;9680;52.520;13.332;2023-12-28T09:03:34;100938.50;;;8.99;73.16
19096;BME280;9680;52.520;13.332;2023-12-28T09:06:01;100944.47;;;9.02;73.45
19096;BME280;9680;52.520;13.332;2023-12-28T09:08:27;100953.97;;;9.03;72.94
19096;BME280;9680;52.520;13.332;2023-12-28T09:10:54;100948.91;;;8.99;72.74
19096;BME280;9680;52.520;13.332;2023-12-28T09:13:21;100960.16;;;8.99;73.05
19096;BME280;9680;52.520;13.332;2023-12-28T09:15:49;100957.59;;;8.98;73.05
19096;BME280;9680;52.520;13.332;2023-12-28T09:18:16;100954.97;;;8.99;73.11
19096;BME280;9680;52.520;13.332;2023-12-28T09:20:42;100957.56;;;8.99;73.09
19096;BME280;9680;52.520;13.332;2023-12-28T09:23:09;100954.09;;;8.99;72.93
19096;BME280;9680;52.520;13.332;2023-12-28T09:25:36;100948.88;;;9.00;73.02
19096;BME280;9680;52.520;13.332;2023-12-28T09:28:04;100948.88;;;9.00;73.13
19096;BME280;9680;52.520;13.332;2023-12-28T09:30:31;100939.38;;;8.99;72.73
19096;BME280;9680;52.520;13.332;2023-12-28T09:32:59;100943.81;;;8.94;72.94
19096;BME280;9680;52.520;13.332;2023-12-28T09:35:26;100948.16;;;8.95;72.93
19096;BME280;9680;52.520;13.332;2023-12-28T09:37:52;100942.16;;;8.92;73.09
19096;BME280;9680;52.520;13.332;2023-12-28T09:40:19;100943.97;;;8.88;72.93
19096;BME280;9680;52.520;13.332;2023-12-28T09:42:51;100943.22;;;8.84;73.22
19096;BME280;9680;52.520;13.332;2023-12-28T09:45:20;100936.34;;;8.83;73.37
19096;BME280;9680;52.520;13.332;2023-12-28T09:47:47;100943.31;;;8.81;73.18
19096;BME280;9680;52.520;13.332;2023-12-28T09:50:18;100937.25;;;8.81;73.62
19096;BME280;9680;52.520;13.332;2023-12-28T09:52:45;100936.50;;;8.77;73.46
19096;BME280;9680;52.520;13.332;2023-12-28T09:55:12;100931.31;;;8.77;73.46
19096;BME280;9680;52.520;13.332;2023-12-28T09:57:39;100935.63;;;8.77;73.92
19096;BME280;9680;52.520;13.332;2023-12-28T10:00:08;100928.72;;;8.77;73.78
19096;BME280;9680;52.520;13.332;2023-12-28T10:02:40;100926.94;;;8.78;73.99
19096;BME280;9680;52.520;13.332;2023-12-28T10:05:12;100935.63;;;8.78;73.71
19096;BME280;9680;52.520;13.332;2023-12-28T10:07:41;100927.75;;;8.80;73.77
19096;BME280;9680;52.520;13.332;2023-12-28T10:10:08;100931.25;;;8.79;73.89
19096;BME280;9680;52.520;13.332;2023-12-28T10:12:35;100919.88;;;8.83;73.94
19096;BME280;9680;52.520;13.332;2023-12-28T10:15:02;100922.47;;;8.83;73.72
19096;BME280;9680;52.520;13.332;2023-12-28T10:17:29;100919.75;;;8.87;73.69
19096;BME280;9680;52.520;13.332;2023-12-28T10:19:56;100925.72;;;8.91;73.79
19096;BME280;9680;52.520;13.332;2023-12-28T10:22:29;100917.09;;;8.91;73.59
19096;BME280;9680;52.520;13.332;2023-12-28T10:24:57;100922.22;;;8.92;73.64
19096;BME280;9680;52.520;13.332;2023-12-28T10:27:24;100929.09;;;8.95;73.81
19096;BME280;9680;52.520;13.332;2023-12-28T10:29:53;100936.63;;;9.04;73.38
19096;BME280;9680;52.520;13.332;2023-12-28T10:32:20;100927.72;;;9.13;73.36
19096;BME280;9680;52.520;13.332;2023-12-28T10:34:48;100926.66;;;9.18;73.39
19096;BME280;9680;52.520;13.332;2023-12-28T10:37:16;100916.16;;;9.23;73.08
19096;BME280;9680;52.520;13.332;2023-12-28T10:39:46;100919.59;;;9.24;72.96
19096;BME280;9680;52.520;13.332;2023-12-28T10:42:28;100922.97;;;9.27;72.83
19096;BME280;9680;52.520;13.332;2023-12-28T10:45:02;100920.19;;;9.33;72.58
19096;BME280;9680;52.520;13.332;2023-12-28T10:47:31;100916.50;;;9.41;72.63
19096;BME280;9680;52.520;13.332;2023-12-28T10:50:02;100926.81;;;9.44;72.60
19096;BME280;9680;52.520;13.332;2023-12-28T10:52:31;100914.59;;;9.46;72.01
19096;BME280;9680;52.520;13.332;2023-12-28T10:55:09;100905.19;;;9.42;72.20
19096;BME280;9680;52.520;13.332;2023-12-28T10:57:51;100913.72;;;9.47;72.12
19096;BME280;9680;52.520;13.332;2023-12-28T11:00:23;100912.72;;;9.51;71.47
19096;BME280;9680;52.520;13.332;2023-12-28T11:02:52;100918.72;;;9.53;71.87
19096;BME280;9680;52.520;13.332;2023-12-28T11:05:20;100923.81;;;9.56;71.95
19096;BME280;9680;52.520;13.332;2023-12-28T11:07:49;100925.25;;;9.67;72.36
19096;BME280;9680;52.520;13.332;2023-12-28T11:10:19;100918.97;;;9.74;72.21
19096;BME280;9680;52.520;13.332;2023-12-28T11:12:51;100909.19;;;9.81;71.57
19096;BME280;9680;52.520;13.332;2023-12-28T11:15:18;100920.31;;;9.86;71.10
19096;BME280;9680;52.520;13.332;2023-12-28T11:17:45;100914.09;;;9.90;71.00
19096;BME280;9680;52.520;13.332;2023-12-28T11:20:14;100920.66;;;10.02;70.25
19096;BME280;9680;52.520;13.332;2023-12-28T11:22:41;100916.25;;;10.04;70.37
19096;BME280;9680;52.520;13.332;2023-12-28T11:25:14;100916.94;;;10.11;70.04
19096;BME280;9680;52.520;13.332;2023-12-28T11:27:41;100908.81;;;10.20;69.96
19096;BME280;9680;52.520;13.332;2023-12-28T11:30:12;100910.25;;;10.29;68.16
19096;BME280;9680;52.520;13.332;2023-12-28T11:32:40;100907.38;;;10.37;68.25
19096;BME280;9680;52.520;13.332;2023-12-28T11:35:10;100898.94;;;10.30;68.17
19096;BME280;9680;52.520;13.332;2023-12-28T11:37:38;100895.72;;;10.22;67.86
19096;BME280;9680;52.520;13.332;2023-12-28T11:40:11;100899.41;;;10.16;68.06
19096;BME280;9680;52.520;13.332;2023-12-28T11:42:47;100903.84;;;10.12;68.15
19096;BME280;9680;52.520;13.332;2023-12-28T11:45:16;100898.59;;;10.14;68.50
19096;BME280;9680;52.520;13.332;2023-12-28T11:47:43;100882.97;;;10.14;67.89
19096;BME280;9680;52.520;13.332;2023-12-28T11:50:10;100882.97;;;10.14;68.22
19096;BME280;9680;52.520;13.332;2023-12-28T11:52:38;100862.94;;;10.16;67.58
19096;BME280;9680;52.520;13.332;2023-12-28T11:55:05;100873.50;;;10.11;67.49
19096;BME280;9680;52.520;13.332;2023-12-28T11:57:32;100874.28;;;10.15;67.46
19096;BME280;9680;52.520;13.332;2023-12-28T12:00:00;100862.06;;;10.17;67.52
19096;BME280;9680;52.520;13.332;2023-12-28T12:02:31;100849.88;;;10.17;67.65
19096;BME280;9680;52.520;13.332;2023-12-28T12:04:58;100847.22;;;10.19;66.78
19096;BME280;9680;52.520;13.332;2023-12-28T12:07:27;100842.84;;;10.19;67.31
19096;BME280;9680;52.520;13.332;2023-12-28T12:09:57;100847.94;;;10.23;67.38
19096;BME280;9680;52.520;13.332;2023-12-28T12:12:24;100828.72;;;10.27;67.19
19096;BME280;9680;52.520;13.332;2023-12-28T12:14:51;100840.03;;;10.26;66.74
19096;BME280;9680;52.520;13.332;2023-12-28T12:17:18;100833.06;;;10.28;66.85
19096;BME280;9680;52.520;13.332;2023-12-28T12:19:46;100837.44;;;10.26;66.75
19096;BME280;9680;52.520;13.332;2023-12-28T12:22:16;100842.63;;;10.26;67.09
19096;BME280;9680;52.520;13.332;2023-12-28T12:24:44;100841.66;;;10.30;66.72
19096;BME280;9680;52.520;13.332;2023-12-28T12:27:13;100845.97;;;10.31;66.69
19096;BME280;9680;52.520;13.332;2023-12-28T12:29:40;100841.59;;;10.31;67.05
19096;BME280;9680;52.520;13.332;2023-12-28T12:32:07;100840.56;;;10.35;66.82
19096;BME280;9680;52.520;13.332;2023-12-28T12:34:34;100836.34;;;10.33;66.10
19096;BME280;9680;52.520;13.332;2023-12-28T12:37:02;100846.75;;;10.33;66.77
19096;BME280;9680;52.520;13.332;2023-12-28T12:39:29;100844.88;;;10.37;66.87
19096;BME280;9680;52.520;13.332;2023-12-28T12:41:57;100838.72;;;10.39;66.87
19096;BME280;9680;52.520;13.332;2023-12-28T12:44:24;100837.78;;;10.42;66.82
19096;BME280;9680;52.520;13.332;2023-12-28T12:46:56;100837.13;;;10.35;66.46
19096;BME280;9680;52.520;13.332;2023-12-28T12:49:24;100839.84;;;10.32;67.06
19096;BME280;9680;52.520;13.332;2023-12-28T12:51:51;100845.84;;;10.34;67.20
19096;BME280;9680;52.520;13.332;2023-12-28T12:54:20;100843.13;;;10.37;66.84
19096;BME280;9680;52.520;13.332;2023-12-28T12:56:46;100841.38;;;10.38;66.72
19096;BME280;9680;52.520;13.332;2023-12-28T12:59:13;100839.63;;;10.38;67.00
19096;BME280;9680;52.520;13.332;2023-12-28T13:01:43;100840.47;;;10.39;66.63